createdAt,value
2022-08-10T00:01:53.516Z,96974.16
2022-08-10T00:04:23.587Z,96980.16
2022-08-10T00:06:53.764Z,96977.47
2022-08-10T00:09:22.859Z,96976.03
2022-08-10T00:11:51.503Z,96968.41
2022-08-10T00:14:20.083Z,96980.78
2022-08-10T00:16:50.065Z,96980.59
2022-08-10T00:19:18.837Z,96982.44
2022-08-10T00:21:48.484Z,96981.41
2022-08-10T00:24:17.463Z,96977.50
2022-08-10T00:27:52.145Z,96984.91
2022-08-10T00:29:34.635Z,96981.19
2022-08-10T00:32:05.674Z,96982.84
2022-08-10T00:34:34.980Z,96975.81
2022-08-10T00:37:03.487Z,96973.34
2022-08-10T00:39:36.002Z,96966.94
2022-08-10T00:42:08.278Z,96964.25
2022-08-10T00:44:38.758Z,96968.56
2022-08-10T00:47:15.387Z,96964.03
2022-08-10T00:49:58.398Z,96967.88
2022-08-10T00:52:28.787Z,96962.22
2022-08-10T00:54:57.754Z,96965.47
2022-08-10T00:57:26.673Z,96963.16
2022-08-10T00:59:59.006Z,96963.56
2022-08-10T01:02:32.967Z,96970.63
2022-08-10T01:05:05.835Z,96968.34
2022-08-10T01:08:03.919Z,96962.53
2022-08-10T01:10:53.497Z,96958.78
2022-08-10T01:13:28.291Z,96968.03
2022-08-10T01:16:02.327Z,96962.63
2022-08-10T01:18:52.323Z,96964.88
2022-08-10T01:21:56.667Z,96962.69
2022-08-10T01:24:59.125Z,96962.97
2022-08-10T01:27:32.741Z,96961.50
2022-08-10T01:30:08.937Z,96959.38
2022-08-10T01:32:44.079Z,96964.75
2022-08-10T01:35:18.092Z,96962.19
2022-08-10T01:37:53.294Z,96966.44
2022-08-10T01:40:26.244Z,96962.94
2022-08-10T01:43:07.412Z,96962.41
2022-08-10T01:45:45.527Z,96962.44
2022-08-10T01:48:29.240Z,96964.69
2022-08-10T01:51:04.026Z,96961.53
2022-08-10T01:53:41.362Z,96963.94
2022-08-10T01:56:12.922Z,96962.66
2022-08-10T01:58:43.342Z,96974.94
2022-08-10T02:01:17.486Z,96975.75
2022-08-10T02:04:03.913Z,96979.88
2022-08-10T02:06:36.719Z,96980.44
2022-08-10T02:09:07.726Z,96975.09
2022-08-10T02:12:05.180Z,96969.94
2022-08-10T02:14:33.237Z,96974.94
2022-08-10T02:17:07.363Z,96966.63
2022-08-10T02:19:39.730Z,96968.16
2022-08-10T02:22:37.565Z,96965.94
2022-08-10T02:25:02.062Z,96960.16
2022-08-10T02:27:34.990Z,96959.31
2022-08-10T02:30:04.913Z,96961.09
2022-08-10T02:32:38.366Z,96959.47
2022-08-10T02:35:15.528Z,96967.94
2022-08-10T02:37:52.461Z,96960.09
2022-08-10T02:45:12.217Z,96961.91
2022-08-10T02:45:27.144Z,96961.44
2022-08-10T02:46:14.155Z,96961.66
2022-08-10T02:48:55.362Z,96963.31
2022-08-10T02:52:07.174Z,96958.34
2022-08-10T02:54:25.406Z,96966.81
2022-08-10T02:56:58.101Z,96957.81
2022-08-10T02:59:40.009Z,96956.38
2022-08-10T03:02:15.572Z,96959.25
2022-08-10T03:04:55.995Z,96956.19
2022-08-10T03:07:44.689Z,96964.59
2022-08-10T03:10:18.701Z,96963.16
2022-08-10T03:12:50.597Z,96963.88
2022-08-10T03:15:22.618Z,96959.00
2022-08-10T03:17:57.930Z,96966.09
2022-08-10T03:20:37.219Z,96965.06
2022-08-10T03:23:11.897Z,96960.19
2022-08-10T03:25:41.034Z,96959.63
2022-08-10T03:28:23.242Z,96960.16
2022-08-10T03:30:52.150Z,96961.38
2022-08-10T03:33:22.659Z,96958.84
2022-08-10T03:36:40.695Z,96955.06
2022-08-10T03:38:41.614Z,96952.66
2022-08-10T03:41:16.255Z,96953.94
2022-08-10T03:43:47.998Z,96949.63
2022-08-10T03:46:19.500Z,96954.03
2022-08-10T03:48:51.037Z,96958.59
2022-08-10T03:51:22.894Z,96963.34
2022-08-10T03:54:04.280Z,96963.34
2022-08-10T03:56:37.996Z,96963.03
2022-08-10T03:59:08.501Z,96954.63
2022-08-10T04:02:41.539Z,96956.25
2022-08-10T04:04:26.257Z,96955.53
2022-08-10T04:06:59.478Z,96958.63
2022-08-10T04:09:53.619Z,96970.66
2022-08-10T04:12:18.791Z,96972.63
2022-08-10T04:14:50.586Z,96976.56
2022-08-10T04:18:02.692Z,96969.00
2022-08-10T04:20:18.822Z,96965.97
2022-08-10T04:22:52.311Z,96960.38
2022-08-10T04:25:22.237Z,96969.19
2022-08-10T04:27:51.439Z,96960.38
2022-08-10T04:30:20.090Z,96970.47
2022-08-10T04:32:53.514Z,96959.66
2022-08-10T04:35:23.784Z,96964.13
2022-08-10T04:37:56.950Z,96968.09
2022-08-10T04:40:30.327Z,96958.84
2022-08-10T04:43:07.450Z,96958.69
2022-08-10T04:45:48.329Z,96963.50
2022-08-10T04:48:42.497Z,96962.28
2022-08-10T04:51:17.303Z,96952.19
2022-08-10T04:54:04.777Z,96963.38
2022-08-10T04:56:37.069Z,96969.22
2022-08-10T04:59:06.856Z,96966.81
2022-08-10T05:02:22.435Z,96961.78
2022-08-10T05:04:35.707Z,96965.03
2022-08-10T05:07:17.064Z,96973.97
2022-08-10T05:10:04.878Z,96972.84
2022-08-10T05:12:37.330Z,96976.38
2022-08-10T05:15:08.414Z,96972.38
2022-08-10T05:17:37.392Z,96975.81
2022-08-10T05:20:08.042Z,96978.44
2022-08-10T05:22:38.208Z,96976.53
2022-08-10T05:25:11.021Z,96978.88
2022-08-10T05:27:40.281Z,96977.91
2022-08-10T05:30:13.694Z,96982.03
2022-08-10T05:32:55.658Z,96984.84
2022-08-10T05:35:55.372Z,96977.78
2022-08-10T05:38:19.010Z,96975.19
2022-08-10T05:40:50.313Z,96977.06
2022-08-10T05:43:21.095Z,96978.44
2022-08-10T05:46:17.840Z,96970.16
2022-08-10T05:48:59.715Z,96969.19
2022-08-10T05:51:29.839Z,96970.09
2022-08-10T05:54:04.804Z,96984.22
2022-08-10T05:56:54.327Z,96980.09
2022-08-10T06:00:35.699Z,96969.56
2022-08-10T06:02:35.607Z,96970.91
2022-08-10T06:05:08.505Z,96974.88
2022-08-10T06:07:41.666Z,96985.47
2022-08-10T06:10:13.666Z,96983.88
2022-08-10T06:12:55.566Z,96974.47
2022-08-10T06:15:51.576Z,96972.88
2022-08-10T06:18:15.526Z,96982.84
2022-08-10T06:20:44.706Z,96985.97
2022-08-10T06:23:13.958Z,96981.84
2022-08-10T06:26:11.091Z,96991.97
2022-08-10T06:28:34.949Z,96981.22
2022-08-10T06:31:05.421Z,96984.06
2022-08-10T06:33:36.625Z,96992.53
2022-08-10T06:36:08.735Z,96990.50
2022-08-10T06:38:39.561Z,96988.81
2022-08-10T06:41:17.996Z,96984.94
2022-08-10T06:43:58.272Z,96991.41
2022-08-10T06:46:29.101Z,96976.78
2022-08-10T06:49:02.597Z,96981.34
2022-08-10T06:51:35.066Z,96990.66
2022-08-10T06:54:07.977Z,96983.25
2022-08-10T06:56:50.841Z,96979.75
2022-08-10T06:59:37.205Z,96980.97
2022-08-10T07:02:08.802Z,96983.47
2022-08-10T07:04:43.710Z,96980.97
2022-08-10T07:07:18.161Z,96976.88
2022-08-10T07:09:48.193Z,96971.69
2022-08-10T07:12:18.438Z,96972.53
2022-08-10T07:14:51.234Z,96963.63
2022-08-10T07:17:21.905Z,96960.09
2022-08-10T07:19:53.661Z,96968.75
2022-08-10T07:23:01.256Z,96960.94
2022-08-10T07:25:17.098Z,96953.50
2022-08-10T07:28:00.081Z,96951.41
2022-08-10T07:30:33.601Z,96952.19
2022-08-10T07:33:03.648Z,96949.91
2022-08-10T07:35:42.661Z,96945.59
2022-08-10T07:38:18.178Z,96938.19
2022-08-10T07:40:49.739Z,96940.69
2022-08-10T07:43:21.428Z,96946.22
2022-08-10T07:45:51.872Z,96952.19
2022-08-10T07:48:26.382Z,96944.75
2022-08-10T07:50:59.302Z,96943.94
2022-08-10T07:53:31.741Z,96939.38
2022-08-10T07:56:16.541Z,96935.25
2022-08-10T07:58:55.238Z,96926.34
2022-08-10T08:01:31.219Z,96933.09
2022-08-10T08:04:05.248Z,96935.16
2022-08-10T08:06:41.568Z,96931.81
2022-08-10T08:09:11.327Z,96918.78
2022-08-10T08:11:42.233Z,96928.38
2022-08-10T08:14:11.718Z,96923.75
2022-08-10T08:16:44.601Z,96927.84
2022-08-10T08:19:37.723Z,96927.63
2022-08-10T08:24:10.315Z,96930.41
2022-08-10T08:24:53.392Z,96936.59
2022-08-10T08:27:22.854Z,96926.91
2022-08-10T08:29:53.111Z,96928.78
2022-08-10T08:32:26.801Z,96929.19
2022-08-10T08:34:59.068Z,96924.22
2022-08-10T08:38:30.231Z,96919.47
2022-08-10T08:40:25.298Z,96918.63
2022-08-10T08:43:12.802Z,96923.56
2022-08-10T08:46:01.831Z,96915.47
2022-08-10T08:49:03.459Z,96916.06
2022-08-10T08:52:09.419Z,96910.84
2022-08-10T08:54:45.956Z,96910.53
2022-08-10T08:57:49.830Z,96913.56
2022-08-10T09:00:19.545Z,96902.06
2022-08-10T09:03:18.097Z,96899.25
2022-08-10T09:05:59.358Z,96910.31
2022-08-10T09:08:46.847Z,96893.84
2022-08-10T09:11:31.670Z,96890.59
2022-08-10T09:14:09.954Z,96892.09
2022-08-10T09:16:48.766Z,96898.38
2022-08-10T09:19:36.335Z,96907.19
2022-08-10T09:22:18.148Z,96893.81
2022-08-10T09:24:55.576Z,96895.72
2022-08-10T09:27:30.629Z,96906.69
2022-08-10T09:30:08.620Z,96899.72
2022-08-10T09:33:06.165Z,96900.38
2022-08-10T09:36:28.760Z,96896.91
2022-08-10T09:38:47.206Z,96896.16
2022-08-10T09:41:26.468Z,96891.25
2022-08-10T09:44:02.220Z,96887.38
2022-08-10T09:46:49.099Z,96890.34
2022-08-10T09:49:52.856Z,96892.22
2022-08-10T09:52:19.398Z,96885.81
2022-08-10T09:55:01.865Z,96879.81
2022-08-10T09:57:45.028Z,96877.38
2022-08-10T10:00:18.964Z,96878.44
2022-08-10T10:02:59.078Z,96888.41
2022-08-10T10:05:36.995Z,96874.56
2022-08-10T10:08:12.907Z,96876.66
2022-08-10T10:10:55.244Z,96876.50
2022-08-10T10:14:01.791Z,96866.97
2022-08-10T10:16:33.931Z,96868.34
2022-08-10T10:19:17.397Z,96867.28
2022-08-10T10:21:54.993Z,96867.47
2022-08-10T10:24:34.255Z,96876.38
2022-08-10T10:27:16.296Z,96865.97
2022-08-10T10:30:00.853Z,96863.94
2022-08-10T10:32:42.573Z,96868.47
2022-08-10T10:35:21.935Z,96861.91
2022-08-10T10:38:00.758Z,96867.44
2022-08-10T10:40:43.328Z,96855.16
2022-08-10T10:43:27.375Z,96863.75
2022-08-10T10:46:07.421Z,96853.31
2022-08-10T10:48:42.621Z,96856.69
2022-08-10T10:51:17.565Z,96851.91
2022-08-10T10:54:00.838Z,96850.16
2022-08-10T10:56:36.838Z,96843.25
2022-08-10T10:59:55.364Z,96847.00
2022-08-10T11:02:18.714Z,96839.66
2022-08-10T11:04:57.404Z,96836.38
2022-08-10T11:07:33.943Z,96841.13
2022-08-10T11:10:31.698Z,96848.97
2022-08-10T11:14:23.178Z,96845.00
2022-08-10T11:16:06.745Z,96844.03
2022-08-10T11:18:49.406Z,96844.09
2022-08-10T11:21:28.681Z,96845.91
2022-08-10T11:24:47.213Z,96849.50
2022-08-10T11:26:59.480Z,96840.88
2022-08-10T11:29:35.846Z,96845.59
2022-08-10T11:32:20.376Z,96841.88
2022-08-10T11:35:11.151Z,96852.25
2022-08-10T11:38:31.085Z,96847.88
2022-08-10T11:40:45.353Z,96846.00
2022-08-10T11:43:22.670Z,96842.16
2022-08-10T11:46:06.128Z,96852.75
2022-08-10T11:48:52.807Z,96841.94
2022-08-10T11:51:45.721Z,96845.81
2022-08-10T11:54:26.161Z,96833.94
2022-08-10T11:57:02.287Z,96848.97
2022-08-10T11:59:51.281Z,96840.84
2022-08-10T12:02:32.686Z,96833.00
2022-08-10T12:05:06.817Z,96848.00
2022-08-10T12:10:05.835Z,96840.72
2022-08-10T12:10:29.906Z,96841.28
2022-08-10T12:13:06.488Z,96843.75
2022-08-10T12:15:42.354Z,96834.78
2022-08-10T12:18:16.540Z,96831.25
2022-08-10T12:20:51.903Z,96828.25
2022-08-10T12:23:26.878Z,96826.63
2022-08-10T12:26:07.510Z,96824.75
2022-08-10T12:28:49.800Z,96827.75
2022-08-10T12:31:24.948Z,96825.31
2022-08-10T12:34:04.702Z,96815.19
2022-08-10T12:36:41.603Z,96816.31
2022-08-10T12:39:17.688Z,96819.03
2022-08-10T12:41:54.113Z,96814.97
2022-08-10T12:44:42.142Z,96817.91
2022-08-10T12:47:23.086Z,96817.16
2022-08-10T12:50:29.685Z,96813.59
2022-08-10T12:52:59.035Z,96814.16
2022-08-10T12:55:35.901Z,96814.44
2022-08-10T12:58:58.333Z,96811.69
2022-08-10T13:01:16.611Z,96810.03
2022-08-10T13:04:20.662Z,96804.06
2022-08-10T13:06:42.573Z,96803.75
2022-08-10T13:09:13.966Z,96815.16
2022-08-10T13:12:36.231Z,96806.13
2022-08-10T13:14:42.961Z,96811.50
2022-08-10T13:17:12.741Z,96813.41
2022-08-10T13:19:56.422Z,96813.69
2022-08-10T13:22:30.360Z,96804.19
2022-08-10T13:25:04.870Z,96801.47
2022-08-10T13:28:02.506Z,96804.19
2022-08-10T13:30:37.747Z,96799.84
2022-08-10T13:33:08.615Z,96801.47
2022-08-10T13:35:38.938Z,96786.81
2022-08-10T13:38:09.894Z,96788.97
2022-08-10T13:40:40.770Z,96791.44
2022-08-10T13:43:11.018Z,96777.06
2022-08-10T13:45:46.399Z,96782.00
2022-08-10T13:48:22.917Z,96781.72
2022-08-10T13:50:57.612Z,96770.84
2022-08-10T13:53:31.163Z,96776.84
2022-08-10T13:56:05.328Z,96776.56
2022-08-10T13:58:37.070Z,96776.03
2022-08-10T14:01:12.267Z,96772.22
2022-08-10T14:03:43.369Z,96767.31
2022-08-10T14:06:15.406Z,96765.41
2022-08-10T14:08:49.737Z,96770.03
2022-08-10T14:11:22.255Z,96760.22
2022-08-10T14:13:54.685Z,96765.94
2022-08-10T14:16:24.334Z,96764.56
2022-08-10T14:18:56.156Z,96752.28
2022-08-10T14:21:24.987Z,96762.03
2022-08-10T14:23:54.026Z,96753.59
2022-08-10T14:26:26.378Z,96752.00
2022-08-10T14:28:59.584Z,96751.69
2022-08-10T14:31:34.012Z,96756.88
2022-08-10T14:34:04.969Z,96745.69
2022-08-10T14:36:43.338Z,96746.50
2022-08-10T14:39:20.757Z,96757.38
2022-08-10T14:42:01.637Z,96746.50
2022-08-10T14:44:45.948Z,96737.53
2022-08-10T14:47:54.056Z,96744.56
2022-08-10T14:50:07.584Z,96737.78
2022-08-10T14:52:44.183Z,96734.47
2022-08-10T14:55:20.140Z,96735.25
2022-08-10T14:58:19.676Z,96740.44
2022-08-10T15:00:43.605Z,96737.72
2022-08-10T15:03:58.567Z,96734.41
2022-08-10T15:06:18.059Z,96736.59
2022-08-10T15:08:51.167Z,96731.47
2022-08-10T15:12:13.046Z,96737.97
2022-08-10T15:14:41.708Z,96733.06
2022-08-10T15:17:03.742Z,96734.06
2022-08-10T15:20:02.163Z,96732.47
2022-08-10T15:22:45.258Z,96737.97
2022-08-10T15:25:19.231Z,96731.75
2022-08-10T15:27:57.807Z,96723.03
2022-08-10T15:30:42.793Z,96728.50
2022-08-10T15:34:02.653Z,96729.53
2022-08-10T15:36:42.067Z,96727.91
2022-08-10T15:40:20.680Z,96718.13
2022-08-10T15:42:09.669Z,96710.50
2022-08-10T15:44:41.548Z,96721.69
2022-08-10T15:47:15.550Z,96715.72
2022-08-10T15:49:51.852Z,96715.19
2022-08-10T15:52:59.794Z,96717.63
2022-08-10T15:55:44.247Z,96710.03
2022-08-10T15:58:09.396Z,96707.84
2022-08-10T16:00:40.718Z,96708.09
2022-08-10T16:03:17.096Z,96705.09
2022-08-10T16:06:01.913Z,96704.81
2022-08-10T16:08:55.723Z,96698.03
2022-08-10T16:11:37.572Z,96703.50
2022-08-10T16:14:18.148Z,96703.78
2022-08-10T16:16:51.232Z,96695.13
2022-08-10T16:19:25.518Z,96693.22
2022-08-10T16:22:34.348Z,96697.59
2022-08-10T16:24:53.512Z,96690.53
2022-08-10T16:27:25.627Z,96690.53
2022-08-10T16:29:59.528Z,96696.50
2022-08-10T16:32:30.059Z,96697.59
2022-08-10T16:35:01.929Z,96696.50
2022-08-10T16:37:58.857Z,96687.53
2022-08-10T16:40:30.142Z,96685.09
2022-08-10T16:43:01.202Z,96683.97
2022-08-10T16:45:36.677Z,96681.81
2022-08-10T16:48:08.412Z,96674.22
2022-08-10T16:50:42.546Z,96675.31
2022-08-10T16:53:14.258Z,96669.88
2022-08-10T16:55:50.642Z,96681.59
2022-08-10T16:58:25.066Z,96675.88
2022-08-10T17:00:54.484Z,96679.69
2022-08-10T17:04:06.816Z,96687.31
2022-08-10T17:06:24.861Z,96681.88
2022-08-10T17:08:55.501Z,96671.81
2022-08-10T17:11:29.100Z,96674.81
2022-08-10T17:13:59.243Z,96681.63
2022-08-10T17:16:34.226Z,96679.41
2022-08-10T17:19:03.577Z,96671.81
2022-08-10T17:21:40.986Z,96675.31
2022-08-10T17:24:25.222Z,96674.22
2022-08-10T17:26:57.065Z,96684.00
2022-08-10T17:29:58.446Z,96685.31
2022-08-10T17:32:33.227Z,96684.47
2022-08-10T17:35:23.204Z,96676.53
2022-08-10T17:37:59.106Z,96680.59
2022-08-10T17:40:29.766Z,96680.53
2022-08-10T17:42:59.190Z,96682.69
2022-08-10T17:45:47.767Z,96682.66
2022-08-10T17:48:19.147Z,96683.97
2022-08-10T17:50:52.293Z,96691.28
2022-08-10T17:53:28.893Z,96680.38
2022-08-10T17:55:59.862Z,96691.16
2022-08-10T17:58:31.230Z,96695.72
2022-08-10T18:01:38.637Z,96693.81
2022-08-10T18:03:53.917Z,96700.03
2022-08-10T18:06:23.994Z,96690.75
2022-08-10T18:08:58.862Z,96702.09
2022-08-10T18:11:30.605Z,96701.22
2022-08-10T18:14:03.722Z,96701.69
2022-08-10T18:16:44.109Z,96704.38
2022-08-10T18:19:14.665Z,96706.47
2022-08-10T18:21:47.317Z,96699.94
2022-08-10T18:24:21.260Z,96713.97
2022-08-10T18:26:52.388Z,96713.94
2022-08-10T18:29:22.951Z,96707.94
2022-08-10T18:31:57.673Z,96711.41
2022-08-10T18:34:29.540Z,96721.94
2022-08-10T18:36:58.797Z,96714.84
2022-08-10T18:39:33.175Z,96726.16
2022-08-10T18:42:10.829Z,96727.69
2022-08-10T18:44:43.515Z,96733.06
2022-08-10T18:47:17.324Z,96729.97
2022-08-10T18:49:58.213Z,96728.53
2022-08-10T18:52:31.117Z,96735.41
2022-08-10T18:55:14.467Z,96745.88
2022-08-10T18:58:17.165Z,96734.19
2022-08-10T19:01:04.356Z,96736.00
2022-08-10T19:03:54.011Z,96745.69
2022-08-10T19:06:44.628Z,96736.44
2022-08-10T19:09:45.629Z,96744.72
2022-08-10T19:12:40.223Z,96750.31
2022-08-10T19:15:21.263Z,96744.28
2022-08-10T19:18:05.858Z,96747.97
2022-08-10T19:20:42.340Z,96750.59
2022-08-10T19:23:19.495Z,96752.69
2022-08-10T19:26:36.550Z,96757.16
2022-08-10T19:28:59.205Z,96764.94
2022-08-10T19:31:44.384Z,96762.72
2022-08-10T19:34:28.010Z,96763.47
2022-08-10T19:37:05.718Z,96760.66
2022-08-10T19:39:50.884Z,96765.44
2022-08-10T19:42:31.640Z,96768.47
2022-08-10T19:45:55.515Z,96759.91
2022-08-10T19:48:11.963Z,96756.25
2022-08-10T19:50:45.857Z,96758.97
2022-08-10T19:53:25.108Z,96760.41
2022-08-10T19:56:13.390Z,96763.00
2022-08-10T19:59:08.955Z,96760.94
2022-08-10T20:01:55.509Z,96764.41
2022-08-10T20:04:31.869Z,96760.56
2022-08-10T20:07:13.506Z,96766.47
2022-08-10T20:09:47.499Z,96759.91
2022-08-10T20:12:22.528Z,96756.06
2022-08-10T20:15:02.231Z,96768.97
2022-08-10T20:17:51.190Z,96769.69
2022-08-10T20:20:31.231Z,96777.81
2022-08-10T20:23:09.550Z,96769.94
2022-08-10T20:25:41.231Z,96774.03
2022-08-10T20:28:19.380Z,96775.28
2022-08-10T20:30:52.030Z,96771.34
2022-08-10T20:33:29.079Z,96772.16
2022-08-10T20:36:05.859Z,96767.09
2022-08-10T20:38:43.493Z,96764.13
2022-08-10T20:41:19.559Z,96762.56
2022-08-10T20:44:01.318Z,96761.53
2022-08-10T20:46:36.592Z,96755.22
2022-08-10T20:49:17.293Z,96750.94
2022-08-10T20:51:58.341Z,96755.22
2022-08-10T20:54:34.084Z,96759.25
2022-08-10T20:57:55.890Z,96752.81
2022-08-10T21:00:13.847Z,96745.88
2022-08-10T21:03:07.723Z,96748.56
2022-08-10T21:06:10.076Z,96749.16
2022-08-10T21:08:52.115Z,96738.59
2022-08-10T21:11:35.946Z,96736.75
2022-08-10T21:14:20.955Z,96736.63
2022-08-10T21:17:06.513Z,96736.16
2022-08-10T21:19:55.508Z,96737.22
2022-08-10T21:22:31.582Z,96736.75
2022-08-10T21:25:04.964Z,96739.31
2022-08-10T21:28:13.495Z,96737.91
2022-08-10T21:30:53.237Z,96737.34
2022-08-10T21:33:32.239Z,96735.16
2022-08-10T21:36:09.914Z,96731.75
2022-08-10T21:38:48.288Z,96727.63
2022-08-10T21:41:58.480Z,96734.72
2022-08-10T21:45:04.452Z,96734.06
2022-08-10T21:48:18.001Z,96736.88
2022-08-10T21:51:16.279Z,96731.66
2022-08-10T21:54:25.968Z,96738.22
2022-08-10T21:57:20.991Z,96731.16
2022-08-10T22:00:11.881Z,96730.63
2022-08-10T22:02:59.204Z,96737.16
2022-08-10T22:05:49.226Z,96736.72
2022-08-10T22:08:41.369Z,96738.81
2022-08-10T22:11:38.978Z,96728.47
2022-08-10T22:14:33.594Z,96729.69
2022-08-10T22:18:03.321Z,96725.53
2022-08-10T22:20:41.035Z,96718.78
2022-08-10T22:23:54.116Z,96728.03
2022-08-10T22:27:06.082Z,96714.25
2022-08-10T22:29:54.952Z,96715.44
2022-08-10T22:32:52.164Z,96716.97
2022-08-10T22:36:00.871Z,96713.34
2022-08-10T22:39:02.283Z,96713.34
2022-08-10T22:42:02.333Z,96709.28
2022-08-10T22:44:52.731Z,96712.69
2022-08-10T22:47:40.822Z,96702.31
2022-08-10T22:50:11.937Z,96702.50
2022-08-10T22:53:01.700Z,96704.41
2022-08-10T22:55:55.614Z,96714.22
2022-08-10T22:58:42.769Z,96714.13
2022-08-10T23:01:38.119Z,96711.50
2022-08-10T23:04:15.418Z,96715.09
2022-08-10T23:06:56.027Z,96711.38
2022-08-10T23:09:28.384Z,96704.56
2022-08-10T23:12:00.606Z,96700.81
2022-08-10T23:14:36.130Z,96711.88
2022-08-10T23:18:00.531Z,96712.28
2022-08-10T23:20:19.739Z,96706.97
2022-08-10T23:22:51.088Z,96705.59
2022-08-10T23:25:30.190Z,96710.16
2022-08-10T23:28:03.199Z,96709.34
2022-08-10T23:30:47.953Z,96703.75
2022-08-10T23:33:38.299Z,96698.78
2022-08-10T23:36:33.632Z,96701.00
2022-08-10T23:39:27.084Z,96714.72
2022-08-10T23:41:56.324Z,96700.41
2022-08-10T23:44:26.712Z,96704.31
2022-08-10T23:46:56.926Z,96705.34
2022-08-10T23:49:26.399Z,96698.94
2022-08-10T23:51:56.829Z,96692.56
2022-08-10T23:54:26.710Z,96694.25
2022-08-10T23:57:01.259Z,96695.13
2022-08-10T23:59:33.130Z,96695.38
